sensor_id;sensor_type;location;lat;lon;timestamp;pressure;altitude;pressure_sealevel;temperature;humidity
48976;BME280;34791;52.752;8.346;2023-02-28T00:00:10;147700.03;;;1.01;100.00
48976;BME280;34791;52.752;8.346;2023-02-28T00:02:40;147685.88;;;0.95;100.00
48976;BME280;34791;52.752;8.346;2023-02-28T00:05:07;147678.19;;;0.92;100.00
48976;BME280;34791;52.752;8.346;2023-02-28T00:07:33;147679.47;;;0.93;100.00
48976;BME280;34791;52.752;8.346;2023-02-28T00:09:59;147667.94;;;0.88;100.00
48976;BME280;34791;52.752;8.346;2023-02-28T00:12:24;147662.81;;;0.86;100.00
48976;BME280;34791;52.752;8.346;2023-02-28T00:14:50;147658.91;;;0.84;100.00
48976;BME280;34791;52.752;8.346;2023-02-28T00:17:15;147660.25;;;0.85;100.00
48976;BME280;34791;52.752;8.346;2023-02-28T00:19:43;147644.81;;;0.79;100.00
48976;BME280;34791;52.752;8.346;2023-02-28T00:22:08;147643.53;;;0.78;100.00
48976;BME280;34791;52.752;8.346;2023-02-28T00:24:34;147652.50;;;0.82;100.00
48976;BME280;34791;52.752;8.346;2023-02-28T00:26:59;147667.94;;;0.88;100.00
48976;BME280;34791;52.752;8.346;2023-02-28T00:29:25;147665.38;;;0.87;100.00
48976;BME280;34791;52.752;8.346;2023-02-28T00:31:50;147658.91;;;0.84;100.00
48976;BME280;34791;52.752;8.346;2023-02-28T00:34:15;147657.63;;;0.84;100.00
48976;BME280;34791;52.752;8.346;2023-02-28T00:36:41;147675.63;;;0.91;100.00
48976;BME280;34791;52.752;8.346;2023-02-28T00:39:10;147684.59;;;0.95;100.00
48976;BME280;34791;52.752;8.346;2023-02-28T00:41:36;147696.19;;;0.99;100.00
48976;BME280;34791;52.752;8.346;2023-02-28T00:44:01;147703.88;;;1.02;100.00
48976;BME280;34791;52.752;8.346;2023-02-28T00:46:26;147715.44;;;1.07;100.00
48976;BME280;34791;52.752;8.346;2023-02-28T00:48:52;147706.44;;;1.03;100.00
48976;BME280;34791;52.752;8.346;2023-02-28T00:51:17;147703.88;;;1.02;100.00
48976;BME280;34791;52.752;8.346;2023-02-28T00:53:42;147706.44;;;1.03;100.00
48976;BME280;34791;52.752;8.346;2023-02-28T00:56:08;147706.44;;;1.03;100.00
48976;BME280;34791;52.752;8.346;2023-02-28T00:58:33;147701.31;;;1.01;100.00
48976;BME280;34791;52.752;8.346;2023-02-28T01:00:59;147697.47;;;1.00;100.00
48976;BME280;34791;52.752;8.346;2023-02-28T01:03:25;147684.59;;;0.95;100.00
48976;BME280;34791;52.752;8.346;2023-02-28T01:05:51;147685.88;;;0.95;100.00
48976;BME280;34791;52.752;8.346;2023-02-28T01:08:18;147688.44;;;0.96;100.00
48976;BME280;34791;52.752;8.346;2023-02-28T01:10:43;147691.06;;;0.97;100.00
48976;BME280;34791;52.752;8.346;2023-02-28T01:13:09;147683.31;;;0.94;100.00
48976;BME280;34791;52.752;8.346;2023-02-28T01:15:35;147688.44;;;0.96;100.00
48976;BME280;34791;52.752;8.346;2023-02-28T01:18:00;147685.88;;;0.95;100.00
48976;BME280;34791;52.752;8.346;2023-02-28T01:20:26;147667.94;;;0.88;100.00
48976;BME280;34791;52.752;8.346;2023-02-28T01:22:51;147637.13;;;0.76;100.00
48976;BME280;34791;52.752;8.346;2023-02-28T01:25:17;147621.69;;;0.70;100.00
48976;BME280;34791;52.752;8.346;2023-02-28T01:27:42;147603.75;;;0.63;100.00
48976;BME280;34791;52.752;8.346;2023-02-28T01:30:08;147590.88;;;0.57;100.00
48976;BME280;34791;52.752;8.346;2023-02-28T01:32:35;147580.63;;;0.53;100.00
48976;BME280;34791;52.752;8.346;2023-02-28T01:35:01;147572.94;;;0.50;100.00
48976;BME280;34791;52.752;8.346;2023-02-28T01:37:26;147539.56;;;0.37;100.00
48976;BME280;34791;52.752;8.346;2023-02-28T01:39:52;147524.16;;;0.31;100.00
48976;BME280;34791;52.752;8.346;2023-02-28T01:42:17;147493.34;;;0.19;100.00
48976;BME280;34791;52.752;8.346;2023-02-28T01:45:03;147467.69;;;0.09;100.00
48976;BME280;34791;52.752;8.346;2023-02-28T01:47:34;147456.16;;;0.04;100.00
48976;BME280;34791;52.752;8.346;2023-02-28T01:50:07;147460.00;;;0.06;100.00
48976;BME280;34791;52.752;8.346;2023-02-28T01:52:34;147447.19;;;0.01;100.00
48976;BME280;34791;52.752;8.346;2023-02-28T01:55:02;147434.31;;;-0.05;100.00
48976;BME280;34791;52.752;8.346;2023-02-28T01:57:33;147440.72;;;-0.02;100.00
48976;BME280;34791;52.752;8.346;2023-02-28T02:00:14;147475.38;;;0.12;100.00
48976;BME280;34791;52.752;8.346;2023-02-28T02:02:55;147477.97;;;0.13;100.00
48976;BME280;34791;52.752;8.346;2023-02-28T02:05:25;147485.66;;;0.16;100.00
48976;BME280;34791;52.752;8.346;2023-02-28T02:08:16;147481.81;;;0.14;100.00
48976;BME280;34791;52.752;8.346;2023-02-28T02:10:44;147467.69;;;0.09;100.00
48976;BME280;34791;52.752;8.346;2023-02-28T02:16:04;147444.56;;;-0.01;100.00
48976;BME280;34791;52.752;8.346;2023-02-28T02:18:43;147449.75;;;0.02;100.00
48976;BME280;34791;52.752;8.346;2023-02-28T02:24:36;147447.19;;;0.01;100.00
48976;BME280;34791;52.752;8.346;2023-02-28T02:32:54;147506.16;;;0.24;100.00
48976;BME280;34791;52.752;8.346;2023-02-28T02:35:51;147511.34;;;0.26;100.00
48976;BME280;34791;52.752;8.346;2023-02-28T02:38:49;147521.59;;;0.30;100.00
48976;BME280;34791;52.752;8.346;2023-02-28T02:47:01;147462.56;;;0.07;100.00
48976;BME280;34791;52.752;8.346;2023-02-28T02:49:32;147436.91;;;-0.04;100.00
48976;BME280;34791;52.752;8.346;2023-02-28T02:52:08;147386.88;;;-0.23;100.00
48976;BME280;34791;52.752;8.346;2023-02-28T02:54:40;147341.97;;;-0.41;100.00
48976;BME280;34791;52.752;8.346;2023-02-28T02:57:15;147303.50;;;-0.56;100.00
48976;BME280;34791;52.752;8.346;2023-02-28T02:59:42;147290.66;;;-0.62;100.00
48976;BME280;34791;52.752;8.346;2023-02-28T03:02:12;147257.34;;;-0.75;100.00
48976;BME280;34791;52.752;8.346;2023-02-28T03:04:43;147241.97;;;-0.81;100.00
48976;BME280;34791;52.752;8.346;2023-02-28T03:07:11;147249.66;;;-0.78;100.00
48976;BME280;34791;52.752;8.346;2023-02-28T03:09:37;147241.97;;;-0.81;100.00
48976;BME280;34791;52.752;8.346;2023-02-28T03:12:03;147285.53;;;-0.64;100.00
48976;BME280;34791;52.752;8.346;2023-02-28T03:17:37;147312.47;;;-0.53;100.00
48976;BME280;34791;52.752;8.346;2023-02-28T03:20:10;147281.69;;;-0.65;100.00
48976;BME280;34791;52.752;8.346;2023-02-28T03:30:35;147341.97;;;-0.41;100.00
48976;BME280;34791;52.752;8.346;2023-02-28T03:33:23;147365.06;;;-0.32;100.00
48976;BME280;34791;52.752;8.346;2023-02-28T03:35:56;147386.88;;;-0.23;100.00
48976;BME280;34791;52.752;8.346;2023-02-28T03:38:49;147406.09;;;-0.16;100.00
48976;BME280;34791;52.752;8.346;2023-02-28T03:41:27;147429.19;;;-0.07;100.00
48976;BME280;34791;52.752;8.346;2023-02-28T03:44:12;147447.19;;;0.01;100.00
48976;BME280;34791;52.752;8.346;2023-02-28T03:47:04;147447.19;;;0.01;100.00
48976;BME280;34791;52.752;8.346;2023-02-28T03:52:40;147472.81;;;0.11;100.00
48976;BME280;34791;52.752;8.346;2023-02-28T03:55:10;147465.13;;;0.08;100.00
48976;BME280;34791;52.752;8.346;2023-02-28T03:57:51;147471.53;;;0.10;100.00
48976;BME280;34791;52.752;8.346;2023-02-28T04:00:27;147472.81;;;0.11;100.00
48976;BME280;34791;52.752;8.346;2023-02-28T04:02:54;147467.69;;;0.09;100.00
48976;BME280;34791;52.752;8.346;2023-02-28T04:05:21;147465.13;;;0.08;100.00
48976;BME280;34791;52.752;8.346;2023-02-28T04:07:46;147454.88;;;0.04;100.00
48976;BME280;34791;52.752;8.346;2023-02-28T04:10:13;147457.44;;;0.05;100.00
48976;BME280;34791;52.752;8.346;2023-02-28T04:12:39;147436.91;;;-0.04;100.00
48976;BME280;34791;52.752;8.346;2023-02-28T04:15:05;147408.66;;;-0.15;100.00
48976;BME280;34791;52.752;8.346;2023-02-28T04:17:31;147380.44;;;-0.26;100.00
48976;BME280;34791;52.752;8.346;2023-02-28T04:19:56;147363.78;;;-0.33;100.00
48976;BME280;34791;52.752;8.346;2023-02-28T04:22:23;147362.50;;;-0.33;100.00
48976;BME280;34791;52.752;8.346;2023-02-28T04:24:51;147358.66;;;-0.35;100.00
48976;BME280;34791;52.752;8.346;2023-02-28T04:27:18;147388.16;;;-0.23;100.00
48976;BME280;34791;52.752;8.346;2023-02-28T04:29:44;147416.41;;;-0.12;100.00
48976;BME280;34791;52.752;8.346;2023-02-28T04:32:10;147421.53;;;-0.10;100.00
48976;BME280;34791;52.752;8.346;2023-02-28T04:34:36;147418.97;;;-0.11;100.00
48976;BME280;34791;52.752;8.346;2023-02-28T04:37:01;147408.66;;;-0.15;100.00
48976;BME280;34791;52.752;8.346;2023-02-28T04:39:28;147388.16;;;-0.23;100.00
48976;BME280;34791;52.752;8.346;2023-02-28T04:41:55;147372.75;;;-0.29;100.00
48976;BME280;34791;52.752;8.346;2023-02-28T04:44:21;147366.34;;;-0.32;100.00
48976;BME280;34791;52.752;8.346;2023-02-28T04:46:47;147370.19;;;-0.30;100.00
48976;BME280;34791;52.752;8.346;2023-02-28T04:49:13;147365.06;;;-0.32;100.00
48976;BME280;34791;52.752;8.346;2023-02-28T04:51:39;147354.84;;;-0.36;100.00
48976;BME280;34791;52.752;8.346;2023-02-28T04:54:05;147341.97;;;-0.41;100.00
48976;BME280;34791;52.752;8.346;2023-02-28T04:56:34;147338.13;;;-0.43;100.00
48976;BME280;34791;52.752;8.346;2023-02-28T04:58:59;147331.72;;;-0.45;100.00
48976;BME280;34791;52.752;8.346;2023-02-28T05:01:28;147288.09;;;-0.63;100.00
48976;BME280;34791;52.752;8.346;2023-02-28T05:03:56;147248.38;;;-0.78;100.00
48976;BME280;34791;52.752;8.346;2023-02-28T05:06:24;147221.44;;;-0.89;100.00
48976;BME280;34791;52.752;8.346;2023-02-28T05:08:50;147183.00;;;-1.04;100.00
48976;BME280;34791;52.752;8.346;2023-02-28T05:11:17;147144.56;;;-1.20;100.00
48976;BME280;34791;52.752;8.346;2023-02-28T05:13:43;147107.38;;;-1.34;100.00
48976;BME280;34791;52.752;8.346;2023-02-28T05:16:12;147060.00;;;-1.53;100.00
48976;BME280;34791;52.752;8.346;2023-02-28T05:18:37;147019.00;;;-1.69;100.00
48976;BME280;34791;52.752;8.346;2023-02-28T05:21:03;147027.97;;;-1.66;100.00
48976;BME280;34791;52.752;8.346;2023-02-28T05:23:29;147051.03;;;-1.57;100.00
48976;BME280;34791;52.752;8.346;2023-02-28T05:25:54;147042.03;;;-1.60;100.00
48976;BME280;34791;52.752;8.346;2023-02-28T05:28:20;147035.66;;;-1.63;100.00
48976;BME280;34791;52.752;8.346;2023-02-28T05:30:46;147024.13;;;-1.67;100.00
48976;BME280;34791;52.752;8.346;2023-02-28T05:33:12;146998.50;;;-1.78;100.00
48976;BME280;34791;52.752;8.346;2023-02-28T05:35:41;146980.56;;;-1.85;100.00
48976;BME280;34791;52.752;8.346;2023-02-28T05:38:10;146962.66;;;-1.92;100.00
48976;BME280;34791;52.752;8.346;2023-02-28T05:40:38;146926.75;;;-2.06;100.00
48976;BME280;34791;52.752;8.346;2023-02-28T05:43:04;146942.16;;;-2.00;100.00
48976;BME280;34791;52.752;8.346;2023-02-28T05:45:29;146975.44;;;-1.87;100.00
48976;BME280;34791;52.752;8.346;2023-02-28T05:47:55;146992.13;;;-1.80;100.00
48976;BME280;34791;52.752;8.346;2023-02-28T05:50:21;147019.00;;;-1.69;100.00
48976;BME280;34791;52.752;8.346;2023-02-28T05:52:52;147049.75;;;-1.57;100.00
48976;BME280;34791;52.752;8.346;2023-02-28T05:55:18;147094.56;;;-1.39;100.00
48976;BME280;34791;52.752;8.346;2023-02-28T05:57:43;147145.84;;;-1.19;100.00
48976;BME280;34791;52.752;8.346;2023-02-28T06:00:09;147177.88;;;-1.06;100.00
48976;BME280;34791;52.752;8.346;2023-02-28T06:02:35;147185.56;;;-1.03;100.00
48976;BME280;34791;52.752;8.346;2023-02-28T06:05:00;147198.38;;;-0.98;100.00
48976;BME280;34791;52.752;8.346;2023-02-28T06:07:26;147200.91;;;-0.97;100.00
48976;BME280;34791;52.752;8.346;2023-02-28T06:09:51;147191.97;;;-1.01;100.00
48976;BME280;34791;52.752;8.346;2023-02-28T06:12:17;147161.22;;;-1.13;100.00
48976;BME280;34791;52.752;8.346;2023-02-28T06:14:42;147158.66;;;-1.14;100.00
48976;BME280;34791;52.752;8.346;2023-02-28T06:17:09;147147.13;;;-1.19;100.00
48976;BME280;34791;52.752;8.346;2023-02-28T06:19:37;147136.84;;;-1.23;100.00
48976;BME280;34791;52.752;8.346;2023-02-28T06:22:04;147136.84;;;-1.23;100.00
48976;BME280;34791;52.752;8.346;2023-02-28T06:24:29;147133.00;;;-1.24;100.00
48976;BME280;34791;52.752;8.346;2023-02-28T06:26:56;147148.41;;;-1.18;100.00
48976;BME280;34791;52.752;8.346;2023-02-28T06:29:24;147170.16;;;-1.09;100.00
48976;BME280;34791;52.752;8.346;2023-02-28T06:31:49;147185.56;;;-1.03;100.00
48976;BME280;34791;52.752;8.346;2023-02-28T06:34:15;147208.66;;;-0.94;100.00
48976;BME280;34791;52.752;8.346;2023-02-28T06:36:41;147236.84;;;-0.83;100.00
48976;BME280;34791;52.752;8.346;2023-02-28T06:39:07;147266.34;;;-0.71;100.00
48976;BME280;34791;52.752;8.346;2023-02-28T06:41:34;147289.38;;;-0.62;100.00
48976;BME280;34791;52.752;8.346;2023-02-28T06:44:12;147307.34;;;-0.55;100.00
48976;BME280;34791;52.752;8.346;2023-02-28T06:46:39;147336.84;;;-0.43;100.00
48976;BME280;34791;52.752;8.346;2023-02-28T06:49:06;147365.06;;;-0.32;100.00
48976;BME280;34791;52.752;8.346;2023-02-28T06:51:34;147416.41;;;-0.12;100.00
48976;BME280;34791;52.752;8.346;2023-02-28T06:53:59;147522.88;;;0.31;100.00
48976;BME280;34791;52.752;8.346;2023-02-28T06:56:25;147667.94;;;0.88;100.00
48976;BME280;34791;52.752;8.346;2023-02-28T06:58:51;147842.59;;;1.57;100.00
48976;BME280;34791;52.752;8.346;2023-02-28T07:01:18;148081.69;;;2.52;100.00
48976;BME280;34791;52.752;8.346;2023-02-28T07:03:45;148335.19;;;3.52;100.00
48976;BME280;34791;52.752;8.346;2023-02-28T07:06:10;148516.69;;;4.24;100.00
48976;BME280;34791;52.752;8.346;2023-02-28T07:08:36;148661.00;;;4.81;100.00
48976;BME280;34791;52.752;8.346;2023-02-28T07:11:02;148826.03;;;5.46;100.00
48976;BME280;34791;52.752;8.346;2023-02-28T07:13:28;148847.94;;;5.54;100.00
48976;BME280;34791;52.752;8.346;2023-02-28T07:15:58;148913.69;;;5.80;100.00
48976;BME280;34791;52.752;8.346;2023-02-28T07:18:24;148844.06;;;5.53;100.00
48976;BME280;34791;52.752;8.346;2023-02-28T07:20:50;148869.88;;;5.63;100.00
48976;BME280;34791;52.752;8.346;2023-02-28T07:23:16;148809.25;;;5.39;100.00
48976;BME280;34791;52.752;8.346;2023-02-28T07:25:41;148758.97;;;5.19;100.00
48976;BME280;34791;52.752;8.346;2023-02-28T07:28:07;148784.75;;;5.29;100.00
48976;BME280;34791;52.752;8.346;2023-02-28T07:30:32;148942.13;;;5.92;100.00
48976;BME280;34791;52.752;8.346;2023-02-28T07:32:57;148833.78;;;5.49;100.00
48976;BME280;34791;52.752;8.346;2023-02-28T07:35:23;148614.66;;;4.62;100.00
48976;BME280;34791;52.752;8.346;2023-02-28T07:37:49;148433.03;;;3.91;100.00
48976;BME280;34791;52.752;8.346;2023-02-28T07:40:14;148326.16;;;3.48;100.00
48976;BME280;34791;52.752;8.346;2023-02-28T07:42:41;148408.53;;;3.81;100.00
48976;BME280;34791;52.752;8.346;2023-02-28T07:45:08;148753.81;;;5.17;100.00
48976;BME280;34791;52.752;8.346;2023-02-28T07:47:39;149018.28;;;6.22;100.00
48976;BME280;34791;52.752;8.346;2023-02-28T07:50:08;149127.94;;;6.65;100.00
48976;BME280;34791;52.752;8.346;2023-02-28T07:52:34;149120.22;;;6.62;100.00
48976;BME280;34791;52.752;8.346;2023-02-28T07:54:59;149191.19;;;6.90;100.00
48976;BME280;34791;52.752;8.346;2023-02-28T07:57:25;149311.31;;;7.37;100.00
48976;BME280;34791;52.752;8.346;2023-02-28T07:59:50;149428.88;;;7.83;100.00
48976;BME280;34791;52.752;8.346;2023-02-28T08:02:17;149686.22;;;8.85;100.00
48976;BME280;34791;52.752;8.346;2023-02-28T08:04:43;149603.44;;;8.52;100.00
48976;BME280;34791;52.752;8.346;2023-02-28T08:07:08;149787.09;;;9.24;100.00
48976;BME280;34791;52.752;8.346;2023-02-28T08:09:38;149964.41;;;9.94;100.00
48976;BME280;34791;52.752;8.346;2023-02-28T08:12:04;150134.06;;;10.61;100.00
48976;BME280;34791;52.752;8.346;2023-02-28T08:14:29;150364.75;;;11.51;100.00
48976;BME280;34791;52.752;8.346;2023-02-28T08:16:55;134797.19;;;11.68;100.00
48976;BME280;34791;52.752;8.346;2023-02-28T08:19:20;89985.16;;;11.25;100.00
48976;BME280;34791;52.752;8.346;2023-02-28T08:21:46;34579.16;;;10.12;100.00
48976;BME280;34791;52.752;8.346;2023-02-28T08:24:11;36609.13;;;11.05;100.00
48976;BME280;34791;52.752;8.346;2023-02-28T08:26:36;-12350.81;;;11.83;100.00
48976;BME280;34791;52.752;8.346;2023-02-28T08:29:02;-19477.88;;;11.95;100.00
48976;BME280;34791;52.752;8.346;2023-02-28T08:31:27;-19466.03;;;11.49;100.00
48976;BME280;34791;52.752;8.346;2023-02-28T08:33:53;-19476.94;;;11.91;100.00
48976;BME280;34791;52.752;8.346;2023-02-28T08:36:21;-19482.59;;;12.13;100.00
48976;BME280;34791;52.752;8.346;2023-02-28T08:38:46;-19467.09;;;11.53;100.00
48976;BME280;34791;52.752;8.346;2023-02-28T08:41:12;-19485.50;;;12.24;100.00
48976;BME280;34791;52.752;8.346;2023-02-28T08:43:38;-19469.19;;;11.61;100.00
48976;BME280;34791;52.752;8.346;2023-02-28T08:46:05;-19447.09;;;10.76;100.00
48976;BME280;34791;52.752;8.346;2023-02-28T08:48:32;-19430.13;;;10.10;100.00
48976;BME280;34791;52.752;8.346;2023-02-28T08:51:07;-19435.13;;;10.30;100.00
48976;BME280;34791;52.752;8.346;2023-02-28T08:53:35;-19438.16;;;10.41;98.16
48976;BME280;34791;52.752;8.346;2023-02-28T08:56:02;-19438.41;;;10.42;100.00
48976;BME280;34791;52.752;8.346;2023-02-28T08:58:28;-19467.47;;;11.55;95.68
48976;BME280;34791;52.752;8.346;2023-02-28T09:00:54;-19485.50;;;12.24;90.22
48976;BME280;34791;52.752;8.346;2023-02-28T09:03:21;-19445.53;;;10.70;75.91
48976;BME280;34791;52.752;8.346;2023-02-28T09:05:58;-19459.47;;;11.24;83.60
48976;BME280;34791;52.752;8.346;2023-02-28T09:08:25;-19406.41;;;9.19;85.61
48976;BME280;34791;52.752;8.346;2023-02-28T09:10:51;-19377.78;;;8.08;100.00
48976;BME280;34791;52.752;8.346;2023-02-28T09:13:17;-19343.31;;;6.75;97.84
48976;BME280;34791;52.752;8.346;2023-02-28T09:15:43;-19318.84;;;5.81;83.86
48976;BME280;34791;52.752;8.346;2023-02-28T09:18:08;-19306.94;;;5.36;88.07
48976;BME280;34791;52.752;8.346;2023-02-28T09:20:34;-19313.03;;;5.59;96.70
48976;BME280;34791;52.752;8.346;2023-02-28T09:23:02;-19305.75;;;5.31;82.95
48976;BME280;34791;52.752;8.346;2023-02-28T09:25:27;-19296.09;;;4.94;81.75
48976;BME280;34791;52.752;8.346;2023-02-28T09:27:52;-19300.47;;;5.11;91.38
48976;BME280;34791;52.752;8.346;2023-02-28T09:30:18;-19305.09;;;5.28;100.00
48976;BME280;34791;52.752;8.346;2023-02-28T09:32:43;-19306.69;;;5.35;100.00
48976;BME280;34791;52.752;8.346;2023-02-28T09:35:20;-19302.31;;;5.18;100.00
48976;BME280;34791;52.752;8.346;2023-02-28T09:37:47;-19298.34;;;5.03;97.16
48976;BME280;34791;52.752;8.346;2023-02-28T09:40:14;-19298.47;;;5.03;99.79
48976;BME280;34791;52.752;8.346;2023-02-28T09:42:42;-19294.63;;;4.88;97.19
48976;BME280;34791;52.752;8.346;2023-02-28T09:45:24;-19291.19;;;4.75;100.00
48976;BME280;34791;52.752;8.346;2023-02-28T09:47:51;-19293.84;;;4.85;100.00
48976;BME280;34791;52.752;8.346;2023-02-28T09:52:52;-19283.91;;;4.47;100.00
48976;BME280;34791;52.752;8.346;2023-02-28T09:55:26;-19290.53;;;4.73;100.00
48976;BME280;34791;52.752;8.346;2023-02-28T09:57:54;-19294.25;;;4.87;100.00
48976;BME280;34791;52.752;8.346;2023-02-28T10:00:30;-19285.50;;;4.53;100.00
48976;BME280;34791;52.752;8.346;2023-02-28T10:05:49;-19291.72;;;4.77;100.00
48976;BME280;34791;52.752;8.346;2023-02-28T10:08:32;-19296.34;;;4.95;100.00
48976;BME280;34791;52.752;8.346;2023-02-28T10:11:03;-19291.84;;;4.78;100.00
48976;BME280;34791;52.752;8.346;2023-02-28T10:13:45;-19297.41;;;4.99;100.00
48976;BME280;34791;52.752;8.346;2023-02-28T10:16:39;-19296.88;;;4.97;100.00
48976;BME280;34791;52.752;8.346;2023-02-28T10:21:42;-19292.91;;;4.82;100.00
48976;BME280;34791;52.752;8.346;2023-02-28T10:27:22;-19300.06;;;5.09;100.00
48976;BME280;34791;52.752;8.346;2023-02-28T10:29:51;-19301.66;;;5.15;100.00
48976;BME280;34791;52.752;8.346;2023-02-28T10:32:20;-19298.47;;;5.03;100.00
48976;BME280;34791;52.752;8.346;2023-02-28T10:34:52;-19297.69;;;5.00;100.00
48976;BME280;34791;52.752;8.346;2023-02-28T10:37:19;-19295.69;;;4.92;100.00
48976;BME280;34791;52.752;8.346;2023-02-28T10:39:46;-19294.78;;;4.89;100.00
48976;BME280;34791;52.752;8.346;2023-02-28T10:42:28;-19299.53;;;5.07;100.00
48976;BME280;34791;52.752;8.346;2023-02-28T10:45:16;-19301.38;;;5.14;100.00
48976;BME280;34791;52.752;8.346;2023-02-28T10:48:03;-19300.06;;;5.09;100.00
48976;BME280;34791;52.752;8.346;2023-02-28T10:53:39;-19303.91;;;5.24;100.00
48976;BME280;34791;52.752;8.346;2023-02-28T10:56:16;-19305.63;;;5.30;100.00
48976;BME280;34791;52.752;8.346;2023-02-28T11:02:01;-19299.66;;;5.08;100.00
48976;BME280;34791;52.752;8.346;2023-02-28T11:04:02;-19302.31;;;5.18;100.00
48976;BME280;34791;52.752;8.346;2023-02-28T11:06:33;-19305.09;;;5.28;100.00
48976;BME280;34791;52.752;8.346;2023-02-28T11:09:03;-19310.53;;;5.49;100.00
48976;BME280;34791;52.752;8.346;2023-02-28T11:11:30;-19304.97;;;5.28;100.00
48976;BME280;34791;52.752;8.346;2023-02-28T11:14:18;-19300.88;;;5.12;100.00
48976;BME280;34791;52.752;8.346;2023-02-28T11:16:44;-19301.13;;;5.13;100.00
48976;BME280;34791;52.752;8.346;2023-02-28T11:19:19;-19302.31;;;5.18;100.00
48976;BME280;34791;52.752;8.346;2023-02-28T11:21:53;-19304.16;;;5.25;100.00
48976;BME280;34791;52.752;8.346;2023-02-28T11:24:24;-19307.75;;;5.39;100.00
48976;BME280;34791;52.752;8.346;2023-02-28T11:26:51;-19302.44;;;5.18;100.00
48976;BME280;34791;52.752;8.346;2023-02-28T11:29:25;-19308.00;;;5.40;100.00
48976;BME280;34791;52.752;8.346;2023-02-28T11:32:16;-19313.56;;;5.61;100.00
48976;BME280;34791;52.752;8.346;2023-02-28T11:34:45;-19312.78;;;5.58;100.00
48976;BME280;34791;52.752;8.346;2023-02-28T11:37:27;-19309.06;;;5.44;100.00
48976;BME280;34791;52.752;8.346;2023-02-28T11:39:53;-19307.47;;;5.38;100.00
48976;BME280;34791;52.752;8.346;2023-02-28T11:50:54;-19305.63;;;5.30;93.64
48976;BME280;34791;52.752;8.346;2023-02-28T12:06:54;-19301.38;;;5.14;91.46
48976;BME280;34791;52.752;8.346;2023-02-28T12:09:32;-19311.19;;;5.52;96.79
48976;BME280;34791;52.752;8.346;2023-02-28T12:12:23;-19315.28;;;5.68;100.00
48976;BME280;34791;52.752;8.346;2023-02-28T12:28:49;-19317.81;;;5.77;95.60
48976;BME280;34791;52.752;8.346;2023-02-28T12:31:29;-19313.03;;;5.59;82.85
48976;BME280;34791;52.752;8.346;2023-02-28T12:34:16;-19313.56;;;5.61;82.51
48976;BME280;34791;52.752;8.346;2023-02-28T12:36:47;-19317.94;;;5.78;84.77
48976;BME280;34791;52.752;8.346;2023-02-28T12:39:26;-19320.72;;;5.88;80.85
48976;BME280;34791;52.752;8.346;2023-02-28T12:42:04;-19324.16;;;6.02;79.88
48976;BME280;34791;52.752;8.346;2023-02-28T12:44:37;-19324.03;;;6.01;79.28
48976;BME280;34791;52.752;8.346;2023-02-28T12:47:05;-19323.34;;;5.99;76.76
48976;BME280;34791;52.752;8.346;2023-02-28T12:49:39;-19323.63;;;6.00;76.42
48976;BME280;34791;52.752;8.346;2023-02-28T12:52:08;-19323.88;;;6.01;74.21
48976;BME280;34791;52.752;8.346;2023-02-28T12:54:48;-19323.63;;;6.00;75.83
48976;BME280;34791;52.752;8.346;2023-02-28T12:57:32;-19329.44;;;6.22;79.00
48976;BME280;34791;52.752;8.346;2023-02-28T13:00:24;-19355.06;;;7.21;70.02
48976;BME280;34791;52.752;8.346;2023-02-28T13:11:26;-19399.16;;;8.91;62.28
48976;BME280;34791;52.752;8.346;2023-02-28T13:13:58;-19410.75;;;9.35;57.96
48976;BME280;34791;52.752;8.346;2023-02-28T13:16:24;-19410.75;;;9.35;58.61
48976;BME280;34791;52.752;8.346;2023-02-28T13:18:49;-19412.88;;;9.44;58.22
48976;BME280;34791;52.752;8.346;2023-02-28T13:21:27;-19411.28;;;9.37;56.75
48976;BME280;34791;52.752;8.346;2023-02-28T13:34:35;-19404.69;;;9.12;60.35
48976;BME280;34791;52.752;8.346;2023-02-28T13:39:56;-19413.53;;;9.46;62.50
48976;BME280;34791;52.752;8.346;2023-02-28T13:47:44;-19404.16;;;9.10;56.05
48976;BME280;34791;52.752;8.346;2023-02-28T13:50:32;-19410.22;;;9.33;61.03
48976;BME280;34791;52.752;8.346;2023-02-28T13:53:02;-19414.19;;;9.49;58.71
48976;BME280;34791;52.752;8.346;2023-02-28T13:58:10;-19403.91;;;9.09;59.64
48976;BME280;34791;52.752;8.346;2023-02-28T14:06:27;-19395.19;;;8.75;56.02
48976;BME280;34791;52.752;8.346;2023-02-28T14:09:30;-19387.69;;;8.46;56.07
48976;BME280;34791;52.752;8.346;2023-02-28T14:11:57;-19394.16;;;8.71;60.75
48976;BME280;34791;52.752;8.346;2023-02-28T14:17:15;-19404.97;;;9.13;66.71
48976;BME280;34791;52.752;8.346;2023-02-28T14:19:44;-19411.53;;;9.38;59.44
48976;BME280;34791;52.752;8.346;2023-02-28T14:30:50;-19378.31;;;8.10;59.59
48976;BME280;34791;52.752;8.346;2023-02-28T14:38:45;-19372.09;;;7.86;60.08
48976;BME280;34791;52.752;8.346;2023-02-28T14:41:35;-19373.03;;;7.90;62.21
48976;BME280;34791;52.752;8.346;2023-02-28T14:44:12;-19375.28;;;7.99;58.99
48976;BME280;34791;52.752;8.346;2023-02-28T14:46:40;-19371.44;;;7.84;65.27
48976;BME280;34791;52.752;8.346;2023-02-28T14:49:15;-19364.19;;;7.56;64.47
48976;BME280;34791;52.752;8.346;2023-02-28T14:51:42;-19367.75;;;7.70;66.66
48976;BME280;34791;52.752;8.346;2023-02-28T14:54:16;-19368.69;;;7.73;69.40
48976;BME280;34791;52.752;8.346;2023-02-28T14:56:49;-19367.34;;;7.68;75.43
48976;BME280;34791;52.752;8.346;2023-02-28T14:59:44;-19365.63;;;7.61;66.86
48976;BME280;34791;52.752;8.346;2023-02-28T15:02:36;-19361.81;;;7.47;68.00
48976;BME280;34791;52.752;8.346;2023-02-28T15:07:46;-19359.03;;;7.36;71.13
48976;BME280;34791;52.752;8.346;2023-02-28T15:10:25;-19350.06;;;7.01;72.39
48976;BME280;34791;52.752;8.346;2023-02-28T15:13:10;-19355.06;;;7.21;74.38
48976;BME280;34791;52.752;8.346;2023-02-28T15:15:48;-19345.84;;;6.85;76.40
48976;BME280;34791;52.752;8.346;2023-02-28T15:20:51;-19341.06;;;6.67;76.94
48976;BME280;34791;52.752;8.346;2023-02-28T15:23:21;-19335.78;;;6.46;81.85